This is the latest recevied weather packets stored in our database for station/object HS5SQI-2. If no packets are shown the sender has not sent any weather packets the latest 10 day(s).
| Time | Temp. | Humidity | Pressure | Rain* | Wind** | Luminosity | Snow |
|---|---|---|---|---|---|---|---|
| 1777677189 | 31.67° C | 76% | 1007 hPa | - | - | 0 W/m² | - |
| 1777676567 | 31.67° C | 77% | 1007 hPa | - | - | 0 W/m² | - |
| 1777675945 | 32.22° C | 75% | 1007 hPa | - | - | 0 W/m² | - |
| 1777675323 | 32.22° C | 75% | 1007 hPa | - | - | 0 W/m² | - |
| 1777674701 | 31.67° C | 77% | 1007 hPa | - | - | 0 W/m² | - |
| 1777674080 | 31.67° C | 77% | 1006 hPa | - | - | 0 W/m² | - |
| 1777673457 | 31.67° C | 76% | 1006 hPa | - | - | 0 W/m² | - |
| 1777672835 | 31.67° C | 78% | 1006 hPa | - | - | 0 W/m² | - |
| 1777672213 | 31.67° C | 77% | 1006 hPa | - | - | 0 W/m² | - |
| 1777671591 | 31.67° C | 78% | 1006 hPa | - | - | 0 W/m² | - |
| 1777670969 | 31.67° C | 77% | 1006 hPa | - | - | 0 W/m² | - |
| 1777670347 | 32.22° C | 76% | 1006 hPa | - | - | 0 W/m² | - |
| 1777669725 | 31.11° C | 78% | 1006 hPa | - | - | 0 W/m² | - |
| 1777669103 | 31.67° C | 76% | 1006 hPa | - | - | 0 W/m² | - |
| 1777668480 | 31.67° C | 77% | 1006 hPa | - | - | 0 W/m² | - |
| 1777667858 | 31.11° C | 78% | 1006 hPa | - | - | 0 W/m² | - |
| 1777667306 | 32.22° C | 75% | 1006 hPa | - | - | 0 W/m² | - |
| 1777666683 | 31.67° C | 77% | 1006 hPa | - | - | 0 W/m² | - |
| 1777666062 | 31.67° C | 75% | 1006 hPa | - | - | 0 W/m² | - |
| 1777665440 | 32.22° C | 74% | 1006 hPa | - | - | 0 W/m² | - |
| 1777664818 | 32.22° C | 74% | 1006 hPa | - | - | 0 W/m² | - |
| 1777664195 | 32.78° C | 72% | 1006 hPa | - | - | 0 W/m² | - |
| 1777663573 | 31.67° C | 76% | 1006 hPa | - | - | 0 W/m² | - |
| 1777662951 | 32.22° C | 73% | 1006 hPa | - | - | 0 W/m² | - |
| 1777662329 | 32.22° C | 73% | 1006 hPa | - | - | 0 W/m² | - |
* Rain since midnight (hover to see other rain measurements)
** Current wind speed in m/s (hover to see current wind gust speed)